Gerona, Spain

12:10 AM CET on December 11, 2016 (GMT +0100)
Bescanó | | Change Station

Elev 341 ft 41.97 °N, 2.74 °E | Updated 58 seconds ago

Scattered Clouds
Scattered Clouds
40.8 °F
Feels Like 41 °F
N
0.0
Wind Variable Wind from East
Gusts 0.0 mph

Today
High -- | Low -- °F
--% Chance of Precip.
Yesterday
High -- | Low -- °F
Precip. -- in
Pressure 30.30 in
Visibility 1.9 miles
Clouds Scattered Clouds 200 ft
Windchill 41 °F
Dew Point 40 °F
Humidity 95%
Rainfall 0.00 in
Snow Depth Not available.
8:06 AM 5:17 PM
Waxing Gibbous, 87% visible
METAR LEGE 102300Z 00000KT 3000 1000N BR BCFG SCT002 04/03 Q1026
Pressure 30.30 in
Visibility 1.9 miles
Clouds Scattered Clouds 200 ft
Windchill 41 °F
Dew Point 40 °F
Humidity 95%
Rainfall 0.00 in
Snow Depth Not available.
8:06 AM 5:17 PM
Waxing Gibbous, 87% visible
METAR LEGE 102300Z 00000KT 3000 1000N BR BCFG SCT002 04/03 Q1026

10-Day Weather Forecast

×

Almanac

Astronomy

Dec. 11, 2016 Rise Set
Actual Time
Civil Twilight
Nautical Twilight
Astronomical Twilight
Moon
Length of Visible Light
Length of Day
Tomorrow will be .
, % of the Moon is Illuminated

Today's Extremes

Country Highs Country Lows

Community

WunderPhotos

Upload Photos

1,956,670 photos uploaded!

WunderBlog® & News

Nearby

Air Quality

  Air Quality AQ Index Pollutant
Not available.

Snow Depth

Station Depth Elevation

Earthquake Activity

City Distance Mag. Time & Date
Minimum magnitude displayed is 2.5.

Coastal Water Temperatures

Place Temperature

Stations

Nearby Weather Stations

Station Location Temp. Windchill Dew Point Humidity Wind Precip. Elev Updated Type